Time;durP1;ratioP1;P1;durP2;ratioP2;P2;SDS_P1;SDS_P2;PMS_P1;PMS_P2;Temp;Humidity;BMP_temperature;BMP_pressure;BME280_temperature;BME280_humidity;BME280_pressure;Samples;Min_cycle;Max_cycle;Signal;HPM_P1;HPM_P2
2021/12/27 00:00:26;;;;;;;31.90;14.27;;;;;;;-4.12;88.43;101075.25;5089433;28;20048;-62
2021/12/27 00:02:56;;;;;;;29.63;13.65;;;;;;;-4.13;88.80;101076.03;5089794;28;20056;-62
2021/12/27 00:05:24;;;;;;;28.60;12.13;;;;;;;-4.11;89.02;101074.47;5092244;28;20054;-61
2021/12/27 00:07:53;;;;;;;23.98;10.57;;;;;;;-4.07;89.59;101073.84;5093229;28;20059;-61
2021/12/27 00:10:23;;;;;;;27.52;11.40;;;;;;;-4.05;89.27;101076.47;5088786;28;20051;-62
2021/12/27 00:12:51;;;;;;;30.30;12.77;;;;;;;-4.05;89.06;101077.34;5090221;28;20142;-61
2021/12/27 00:15:19;;;;;;;25.23;11.63;;;;;;;-4.02;89.47;101077.50;5089835;28;20052;-61
2021/12/27 00:17:47;;;;;;;28.42;11.75;;;;;;;-3.99;89.55;101076.81;5087752;28;20044;-61
2021/12/27 00:20:17;;;;;;;31.60;12.45;;;;;;;-3.96;89.86;101080.38;5091309;28;20043;-62
2021/12/27 00:22:46;;;;;;;30.55;12.80;;;;;;;-3.92;90.22;101084.81;5089779;28;20063;-61
2021/12/27 00:25:14;;;;;;;33.47;13.00;;;;;;;-3.93;90.20;101088.13;5087684;28;20062;-62
2021/12/27 00:27:43;;;;;;;33.35;13.65;;;;;;;-3.90;89.91;101085.78;5090432;28;20052;-62
2021/12/27 00:30:12;;;;;;;26.25;12.52;;;;;;;-3.88;90.22;101089.25;5093987;28;20059;-61
2021/12/27 00:32:40;;;;;;;23.88;11.65;;;;;;;-3.81;90.11;101083.75;5094372;28;20507;-61
2021/12/27 00:35:09;;;;;;;24.35;10.68;;;;;;;-3.81;90.11;101088.81;5094436;28;20039;-62
2021/12/27 00:37:36;;;;;;;27.52;11.02;;;;;;;-3.76;89.88;101089.06;5096989;28;20051;-62
2021/12/27 00:40:05;;;;;;;26.60;10.55;;;;;;;-3.71;90.35;101099.44;5089283;28;20047;-62
2021/12/27 00:42:32;;;;;;;22.73;9.35;;;;;;;-3.72;90.08;101097.69;5091908;28;20056;-62
2021/12/27 00:45:01;;;;;;;16.80;8.13;;;;;;;-3.71;90.11;101094.38;5092344;28;20051;-62
2021/12/27 00:47:28;;;;;;;24.45;9.27;;;;;;;-3.69;90.23;101097.84;5091310;28;20082;-61
2021/12/27 00:49:55;;;;;;;23.20;8.70;;;;;;;-3.71;89.96;101094.38;5088661;28;20048;-62
2021/12/27 00:52:22;;;;;;;21.83;9.75;;;;;;;-3.71;90.06;101099.44;5090897;28;20054;-62
2021/12/27 00:54:49;;;;;;;21.25;9.13;;;;;;;-3.71;90.36;101089.31;5092603;28;20055;-62
2021/12/27 00:57:16;;;;;;;23.92;9.07;;;;;;;-3.69;90.29;101097.84;5097337;28;20048;-62
2021/12/27 00:59:43;;;;;;;17.17;8.10;;;;;;;-3.74;89.35;101099.28;5098177;28;20051;-61
2021/12/27 01:02:12;;;;;;;15.60;8.18;;;;;;;-3.76;89.89;101088.19;5094501;28;20047;-62
2021/12/27 01:04:39;;;;;;;14.80;6.97;;;;;;;-3.73;89.80;101090.88;5094846;28;20052;-61
2021/12/27 01:07:06;;;;;;;13.02;6.15;;;;;;;-3.75;89.73;101098.41;5094667;28;20044;-62
2021/12/27 01:09:43;;;;;;;16.50;7.72;;;;;;;-3.79;89.28;101101.56;5093513;28;20044;-62
2021/12/27 01:12:27;;;;;;;21.48;8.73;;;;;;;-3.85;89.26;101102.09;5094451;28;20059;-62
2021/12/27 01:15:32;;;;;;;15.27;7.20;;;;;;;-3.86;89.40;101100.34;5097999;28;20135;-62
2021/12/27 01:18:00;;;;;;;14.15;6.30;;;;;;;-3.84;89.98;101101.31;5098807;28;20071;-62
2021/12/27 01:20:27;;;;;;;13.63;6.15;;;;;;;-3.79;90.03;101093.09;5096599;28;20402;-62
2021/12/27 01:22:56;;;;;;;16.83;6.95;;;;;;;-3.79;89.64;101093.97;5092322;28;20100;-61
2021/12/27 01:25:24;;;;;;;16.27;6.03;;;;;;;-3.78;89.41;101097.38;5092829;28;20044;-62
2021/12/27 01:27:52;;;;;;;17.63;6.88;;;;;;;-3.82;89.52;101097.19;5090056;28;20057;-61
2021/12/27 01:30:21;;;;;;;11.27;5.78;;;;;;;-3.81;89.53;101098.94;5090075;28;20055;-61
2021/12/27 01:32:52;;;;;;;16.30;7.40;;;;;;;-3.81;89.52;101101.47;5099284;28;20143;-61
2021/12/27 01:35:21;;;;;;;15.02;6.07;;;;;;;-3.78;89.71;101102.44;5095269;28;20058;-62
2021/12/27 01:37:50;;;;;;;15.32;6.43;;;;;;;-3.76;89.77;101103.38;5092255;28;20063;-62
2021/12/27 01:40:19;;;;;;;20.20;8.23;;;;;;;-3.74;89.42;101109.41;5093006;28;20062;-62
2021/12/27 01:43:11;;;;;;;14.95;8.00;;;;;;;-3.74;88.99;101106.88;5095173;28;20059;-62
2021/12/27 01:45:41;;;;;;;86.45;31.10;;;;;;;-3.73;88.82;101116.22;5083602;28;20063;-62
2021/12/27 01:48:08;;;;;;;14.52;6.13;;;;;;;-3.78;88.52;101103.31;5093656;28;20388;-62
2021/12/27 01:50:39;;;;;;;78.28;26.25;;;;;;;-3.86;87.93;101115.56;5090953;28;20051;-63
2021/12/27 01:53:07;;;;;;;21.75;8.07;;;;;;;-3.90;88.03;101112.75;5091579;28;20105;-62
2021/12/27 01:55:34;;;;;;;12.95;6.22;;;;;;;-3.96;87.72;101113.31;5095654;28;20056;-62
2021/12/27 01:58:02;;;;;;;36.75;12.90;;;;;;;-4.13;86.19;101109.84;5092616;28;20520;-62
2021/12/27 02:00:29;;;;;;;114.50;32.78;;;;;;;-4.27;85.67;101109.81;5099655;28;20043;-62
2021/12/27 02:02:56;;;;;;;36.40;11.63;;;;;;;-4.38;85.25;101115.94;5092910;28;20639;-62
2021/12/27 02:05:24;;;;;;;64.13;22.45;;;;;;;-4.52;85.28;101118.53;5092079;28;20052;-61
2021/12/27 02:07:52;;;;;;;65.85;22.60;;;;;;;-4.68;84.95;101122.59;5094149;28;20043;-62
2021/12/27 02:10:20;;;;;;;80.55;29.88;;;;;;;-4.82;84.85;101121.78;5094579;28;20523;-62
2021/12/27 02:12:47;;;;;;;149.15;49.88;;;;;;;-4.90;85.21;101125.53;5096826;28;20051;-62
2021/12/27 02:15:14;;;;;;;227.05;73.75;;;;;;;-4.94;85.73;101132.06;5094177;28;20977;-61
2021/12/27 02:17:43;;;;;;;201.48;64.70;;;;;;;-4.98;85.77;101136.84;5094347;28;20043;-62
2021/12/27 02:20:17;;;;;;;56.70;19.38;;;;;;;-5.01;86.42;101129.94;5091892;28;20073;-61
2021/12/27 02:22:44;;;;;;;54.03;21.30;;;;;;;-5.02;86.38;101137.44;5090757;28;20108;-62
2021/12/27 02:25:13;;;;;;;59.70;23.13;;;;;;;-5.02;86.72;101132.38;5090773;28;20514;-62
2021/12/27 02:27:41;;;;;;;26.58;11.15;;;;;;;-5.02;86.76;101134.91;5090279;28;20750;-61
2021/12/27 02:30:13;;;;;;;28.02;11.02;;;;;;;-5.04;86.76;101128.88;5095660;28;20189;-61
2021/12/27 02:32:48;;;;;;;35.53;16.83;;;;;;;-5.07;86.66;101123.66;5094649;28;20063;-61
2021/12/27 02:35:20;;;;;;;30.20;13.65;;;;;;;-5.02;87.02;101122.25;5090849;28;20059;-61
2021/12/27 02:37:47;;;;;;;25.30;11.23;;;;;;;-4.99;87.00;101120.78;5089705;28;20055;-62
2021/12/27 02:40:15;;;;;;;22.95;9.40;;;;;;;-4.94;87.35;101110.94;5090095;28;20055;-61
2021/12/27 02:42:56;;;;;;;25.45;12.07;;;;;;;-4.98;86.69;101109.03;5096176;28;20036;-61
2021/12/27 02:45:24;;;;;;;35.17;14.35;;;;;;;-5.06;86.04;101110.22;5093314;28;20055;-62
2021/12/27 02:47:51;;;;;;;50.58;22.60;;;;;;;-5.22;85.96;101111.81;5091818;28;20055;-61
2021/12/27 02:50:21;;;;;;;37.97;17.15;;;;;;;-5.37;85.76;101108.34;5093395;28;20529;-62
2021/12/27 02:52:48;;;;;;;38.08;19.60;;;;;;;-5.46;86.16;101107.78;5093902;28;20039;-61
2021/12/27 02:55:17;;;;;;;37.72;10.65;;;;;;;-5.56;86.78;101116.47;5091939;28;20424;-62
2021/12/27 02:57:44;;;;;;;73.35;16.02;;;;;;;-5.68;87.79;101115.69;5090524;28;20048;-61
2021/12/27 03:00:16;;;;;;;102.68;19.35;;;;;;;-5.74;88.76;101111.13;5092059;28;20048;-61
2021/12/27 03:02:45;;;;;;;73.47;17.27;;;;;;;-5.77;89.31;101108.41;5090468;28;20055;-61
2021/12/27 03:05:13;;;;;;;88.85;19.02;;;;;;;-5.81;89.71;101098.88;5091087;28;20736;-61
2021/12/27 03:07:42;;;;;;;104.72;19.58;;;;;;;-5.75;89.90;101106.84;5091199;28;20055;-61
2021/12/27 03:10:11;;;;;;;66.68;14.88;;;;;;;-5.69;90.17;101105.50;5091953;28;20059;-62
2021/12/27 03:12:38;;;;;;;49.63;13.27;;;;;;;-5.70;90.15;101107.16;5093847;28;20044;-62
2021/12/27 03:15:08;;;;;;;48.38;12.75;;;;;;;-5.68;89.88;101112.31;5092561;28;20083;-62
2021/12/27 03:17:37;;;;;;;68.10;13.05;;;;;;;-5.72;89.73;101113.75;5094211;28;20411;-62
2021/12/27 03:20:06;;;;;;;57.20;12.82;;;;;;;-5.67;89.76;101111.53;5095950;28;20069;-62
2021/12/27 03:22:33;;;;;;;65.80;12.23;;;;;;;-5.77;88.48;101105.00;5092080;28;20048;-62
2021/12/27 03:25:02;;;;;;;28.23;10.30;;;;;;;-5.86;88.30;101109.47;5094233;28;20059;-62
2021/12/27 03:27:29;;;;;;;43.63;12.10;;;;;;;-5.85;88.38;101111.22;5092572;28;20052;-61
2021/12/27 03:29:56;;;;;;;36.65;11.35;;;;;;;-5.85;88.58;101102.00;5097519;28;20068;-62
2021/12/27 03:32:24;;;;;;;53.05;13.35;;;;;;;-5.85;88.38;101102.00;5092854;28;20105;-61
2021/12/27 03:34:57;;;;;;;73.70;11.23;;;;;;;-5.88;88.21;101103.47;5093644;28;20125;-61
2021/12/27 03:37:25;;;;;;;55.35;12.35;;;;;;;-5.90;88.28;101103.41;5092899;28;20052;-62
2021/12/27 03:39:53;;;;;;;58.50;14.93;;;;;;;-5.92;88.50;101104.06;5095976;28;20039;-61
2021/12/27 03:42:21;;;;;;;91.60;14.18;;;;;;;-5.94;88.37;101111.56;5096001;28;20051;-61
2021/12/27 03:44:49;;;;;;;87.97;16.60;;;;;;;-6.02;87.81;101115.25;5093004;28;20052;-62
2021/12/27 03:47:17;;;;;;;197.63;23.55;;;;;;;-6.11;87.52;101109.63;5093218;28;20063;-62
2021/12/27 03:49:44;;;;;;;123.88;19.98;;;;;;;-6.25;87.46;101113.75;5094356;28;20050;-63
2021/12/27 03:52:11;;;;;;;122.45;18.88;;;;;;;-6.39;87.43;101107.81;5094593;28;20431;-61
2021/12/27 03:54:38;;;;;;;137.18;23.65;;;;;;;-6.54;87.06;101111.88;5095553;28;20071;-61
2021/12/27 03:57:06;;;;;;;91.75;14.80;;;;;;;-6.65;87.11;101115.34;5093656;28;20055;-61
2021/12/27 03:59:50;;;;;;;58.03;12.63;;;;;;;-6.75;87.39;101107.94;5092900;28;20055;-62
2021/12/27 04:02:17;;;;;;;53.08;12.10;;;;;;;-6.87;87.29;101110.50;5093055;28;20051;-62
2021/12/27 04:04:45;;;;;;;39.20;10.55;;;;;;;-6.94;87.59;101109.97;5093576;28;20102;-62
2021/12/27 04:07:12;;;;;;;28.70;11.23;;;;;;;-7.01;87.54;101109.56;5094892;28;20571;-61
2021/12/27 04:09:40;;;;;;;34.67;11.48;;;;;;;-7.01;87.72;101116.25;5097090;28;20058;-61
2021/12/27 04:12:08;;;;;;;56.88;13.55;;;;;;;-7.09;87.85;101115.75;5096348;28;20112;-61
2021/12/27 04:14:37;;;;;;;63.53;10.32;;;;;;;-7.17;88.22;101121.91;5091659;28;20052;-61
2021/12/27 04:17:04;;;;;;;80.25;10.07;;;;;;;-7.21;88.71;101109.88;5093337;28;20044;-62
2021/12/27 04:19:31;;;;;;;45.10;6.45;;;;;;;-7.25;89.62;101122.16;5094897;28;21072;-61
2021/12/27 04:21:59;;;;;;;50.65;7.60;;;;;;;-7.26;89.78;101111.22;5093482;28;20394;-62
2021/12/27 04:24:26;;;;;;;29.92;6.20;;;;;;;-7.24;90.04;101116.34;5096021;28;20059;-61
2021/12/27 04:26:53;;;;;;;37.72;6.35;;;;;;;-7.27;89.75;101118.66;5093083;28;20040;-61
2021/12/27 04:29:20;;;;;;;24.13;6.63;;;;;;;-7.26;89.82;101121.28;5098425;28;20097;-61
2021/12/27 04:31:48;;;;;;;20.42;6.80;;;;;;;-7.28;89.70;101117.78;5097674;28;20047;-61
2021/12/27 04:34:16;;;;;;;27.20;7.45;;;;;;;-7.31;89.03;101122.59;5098302;28;20046;-61
2021/12/27 04:36:43;;;;;;;23.20;9.40;;;;;;;-7.34;89.02;101113.16;5096879;28;20055;-62
2021/12/27 04:39:10;;;;;;;30.48;8.18;;;;;;;-7.35;88.36;101118.09;5097979;28;20048;-62
2021/12/27 04:41:37;;;;;;;32.08;8.25;;;;;;;-7.42;88.41;101126.00;5098893;28;20048;-61
2021/12/27 04:44:05;;;;;;;107.40;27.58;;;;;;;-7.55;89.04;101120.91;5098915;28;20130;-61
2021/12/27 04:46:32;;;;;;;73.07;22.10;;;;;;;-7.66;89.01;101127.69;5097987;28;20071;-61
2021/12/27 04:49:01;;;;;;;75.07;18.00;;;;;;;-7.78;89.61;101121.81;5097604;27;20055;-61
2021/12/27 04:51:28;;;;;;;64.38;15.95;;;;;;;-7.84;89.84;101127.25;5099718;28;20044;-61
2021/12/27 04:53:55;;;;;;;89.43;21.88;;;;;;;-7.90;90.07;101120.91;5095805;28;20096;-61
2021/12/27 04:56:23;;;;;;;118.80;40.05;;;;;;;-7.94;90.53;101122.34;5099900;28;20054;-61
2021/12/27 04:58:50;;;;;;;82.05;23.17;;;;;;;-7.96;90.54;101121.34;5096604;28;20051;-61
2021/12/27 05:01:18;;;;;;;52.90;11.68;;;;;;;-7.97;90.87;101119.59;5099243;28;20043;-61
2021/12/27 05:03:45;;;;;;;126.78;13.93;;;;;;;-7.92;91.94;101122.44;5094860;28;20043;-62
2021/12/27 05:06:14;;;;;;;109.00;17.77;;;;;;;-7.89;92.29;101123.53;5096715;28;20109;-61
2021/12/27 05:08:42;;;;;;;107.70;14.27;;;;;;;-7.80;92.92;101114.16;5096176;28;20048;-61
2021/12/27 05:11:10;;;;;;;128.15;13.98;;;;;;;-7.69;93.42;101110.75;5097803;28;20804;-62
2021/12/27 05:13:38;;;;;;;122.70;12.30;;;;;;;-7.60;93.70;101112.16;5101319;28;20047;-61
2021/12/27 05:16:06;;;;;;;66.88;11.88;;;;;;;-7.48;94.28;101118.03;5098816;28;20067;-62
2021/12/27 05:18:33;;;;;;;121.05;16.35;;;;;;;-7.40;94.31;101107.72;5095741;28;20048;-61
2021/12/27 05:21:00;;;;;;;110.68;11.88;;;;;;;-7.27;94.90;101118.66;5097822;28;20040;-62
2021/12/27 05:23:30;;;;;;;58.95;10.18;;;;;;;-7.20;95.08;101116.66;5099334;28;20044;-61
2021/12/27 05:25:57;;;;;;;120.78;14.50;;;;;;;-7.14;94.97;101119.59;5094923;28;20051;-62
2021/12/27 05:28:24;;;;;;;84.25;13.00;;;;;;;-7.11;94.78;101127.38;5097237;28;20051;-62
2021/12/27 05:30:52;;;;;;;90.90;13.93;;;;;;;-7.11;94.60;101132.41;5097482;28;20040;-61
2021/12/27 05:33:20;;;;;;;98.38;18.30;;;;;;;-7.13;94.16;101128.91;5100416;28;20048;-61
2021/12/27 05:35:47;;;;;;;81.93;13.25;;;;;;;-7.08;94.40;101127.56;5096637;28;20056;-61
2021/12/27 05:38:14;;;;;;;167.88;18.05;;;;;;;-7.04;94.53;101128.66;5094912;28;20055;-61
2021/12/27 05:40:43;;;;;;;95.22;16.40;;;;;;;-7.06;94.54;101118.47;5097646;28;20048;-62
2021/12/27 05:43:10;;;;;;;66.80;14.63;;;;;;;-7.01;94.44;101123.81;5099624;28;20052;-61
2021/12/27 05:45:38;;;;;;;109.13;17.55;;;;;;;-6.96;94.61;101116.56;5098742;28;20068;-61
2021/12/27 05:48:06;;;;;;;54.38;13.88;;;;;;;-6.88;94.76;101116.31;5095632;28;20070;-61
2021/12/27 05:50:34;;;;;;;94.30;18.63;;;;;;;-6.81;94.72;101117.59;5098939;28;20066;-61
2021/12/27 05:53:01;;;;;;;81.65;13.73;;;;;;;-6.80;94.63;101115.16;5097983;28;20043;-61
2021/12/27 05:55:29;;;;;;;83.85;14.75;;;;;;;-6.79;94.49;101114.38;5097132;28;20489;-61
2021/12/27 05:57:58;;;;;;;49.80;12.02;;;;;;;-6.74;94.56;101114.72;5093596;28;20060;-61
2021/12/27 06:00:25;;;;;;;79.32;13.52;;;;;;;-6.72;94.53;101113.19;5096865;28;20047;-61
2021/12/27 06:02:54;;;;;;;81.43;14.07;;;;;;;-6.73;94.24;101113.97;5092014;28;20055;-61
2021/12/27 06:05:22;;;;;;;60.47;12.13;;;;;;;-6.72;94.33;101110.66;5093796;28;20040;-61
2021/12/27 06:07:50;;;;;;;62.88;12.32;;;;;;;-6.71;94.18;101109.88;5093200;28;20048;-61
2021/12/27 06:10:19;;;;;;;60.00;13.02;;;;;;;-6.69;94.31;101103.31;5097231;28;20040;-60
2021/12/27 06:12:47;;;;;;;79.88;13.27;;;;;;;-6.68;94.20;101120.19;5098935;28;20481;-61
2021/12/27 06:15:16;;;;;;;50.47;11.38;;;;;;;-6.63;94.07;101112.91;5097135;28;20052;-61
2021/12/27 06:17:43;;;;;;;63.85;13.82;;;;;;;-6.62;94.06;101117.19;5097395;28;20055;-61
2021/12/27 06:20:13;;;;;;;45.83;13.48;;;;;;;-6.62;93.72;101110.50;5098848;28;20128;-61
2021/12/27 06:22:43;;;;;;;55.25;12.15;;;;;;;-6.69;92.98;101121.81;5097730;28;20048;-61
2021/12/27 06:25:10;;;;;;;39.60;9.30;;;;;;;-6.73;92.74;101119.00;5095990;28;20519;-61
2021/12/27 06:27:38;;;;;;;58.03;9.93;;;;;;;-6.81;92.31;101127.66;5094906;28;20039;-61
2021/12/27 06:30:08;;;;;;;68.75;11.50;;;;;;;-6.87;92.38;101127.25;5095903;28;20101;-61
2021/12/27 06:32:37;;;;;;;38.58;10.60;;;;;;;-6.87;92.73;101134.81;5097420;27;20105;-61
2021/12/27 06:35:05;;;;;;;50.10;12.02;;;;;;;-6.93;92.02;101136.94;5097521;28;20050;-61
2021/12/27 06:37:33;;;;;;;44.30;13.43;;;;;;;-7.03;91.82;101146.41;5099821;28;20468;-61
2021/12/27 06:40:00;;;;;;;48.17;13.77;;;;;;;-7.09;91.78;101148.50;5095220;28;20066;-61
2021/12/27 06:42:27;;;;;;;51.33;12.70;;;;;;;-7.15;91.84;101153.13;5095988;28;20056;-61
2021/12/27 06:44:54;;;;;;;42.90;14.55;;;;;;;-7.16;92.20;101146.34;5097067;28;20113;-61
2021/12/27 06:47:22;;;;;;;39.97;12.57;;;;;;;-7.17;91.72;101142.06;5095931;28;20044;-61
2021/12/27 06:49:51;;;;;;;36.63;9.35;;;;;;;-7.25;91.27;101148.22;5095965;28;20050;-61
2021/12/27 06:52:18;;;;;;;42.08;13.63;;;;;;;-7.33;90.98;101147.66;5093505;28;20066;-62
2021/12/27 06:54:45;;;;;;;32.50;11.10;;;;;;;-7.34;91.33;101137.47;5094517;27;20048;-61
2021/12/27 06:57:12;;;;;;;37.92;12.15;;;;;;;-7.39;91.44;101138.81;5097635;28;20051;-61
2021/12/27 06:59:39;;;;;;;22.85;10.18;;;;;;;-7.43;90.81;101134.34;5093988;28;20098;-56
2021/12/27 07:02:07;;;;;;;33.63;10.93;;;;;;;-7.50;90.91;101130.50;5087490;28;20051;-60
2021/12/27 07:04:34;;;;;;;32.90;12.75;;;;;;;-7.51;90.91;101135.44;5092128;28;20101;-59
2021/12/27 07:07:03;;;;;;;28.02;9.60;;;;;;;-7.53;91.03;101135.34;5095029;28;20063;-61
2021/12/27 07:09:30;;;;;;;32.05;9.88;;;;;;;-7.48;90.88;101133.13;5090274;28;20048;-63
2021/12/27 07:11:57;;;;;;;37.38;9.68;;;;;;;-7.49;90.46;101131.38;5090502;28;20043;-63
2021/12/27 07:14:25;;;;;;;21.67;9.05;;;;;;;-7.45;90.49;101131.72;5095294;28;20493;-56
2021/12/27 07:16:52;;;;;;;24.75;9.98;;;;;;;-7.45;89.61;101133.34;5093133;28;20047;-60
2021/12/27 07:19:19;;;;;;;28.13;8.98;;;;;;;-7.45;89.88;101133.34;5090304;28;20059;-57
2021/12/27 07:21:46;;;;;;;18.40;7.78;;;;;;;-7.46;89.36;101142.53;5092034;27;20044;-60
2021/12/27 07:24:14;;;;;;;19.88;8.52;;;;;;;-7.42;89.30;101144.50;5092265;28;20067;-62
2021/12/27 07:26:41;;;;;;;18.42;8.45;;;;;;;-7.36;88.71;101147.44;5091721;27;21774;-54
2021/12/27 07:29:09;;;;;;;22.38;7.70;;;;;;;-7.32;88.25;101151.06;5091852;28;20498;-57
2021/12/27 07:31:36;;;;;;;21.50;9.10;;;;;;;-7.29;88.23;101153.78;5091080;27;20051;-57
2021/12/27 07:34:03;;;;;;;21.27;9.10;;;;;;;-7.31;87.97;101152.81;5090434;28;20047;-56
2021/12/27 07:36:31;;;;;;;20.15;8.55;;;;;;;-7.34;87.49;101157.63;5095092;27;20051;-57
2021/12/27 07:39:00;;;;;;;25.85;9.27;;;;;;;-7.42;86.95;101153.72;5091570;28;20393;-53
2021/12/27 07:41:28;;;;;;;24.20;10.48;;;;;;;-7.52;86.16;101156.34;5091566;28;20048;-58
2021/12/27 07:43:56;;;;;;;22.38;7.72;;;;;;;-7.61;86.51;101163.25;5095706;27;20054;-60
2021/12/27 07:46:24;;;;;;;23.83;8.38;;;;;;;-7.71;86.63;101160.09;5099875;28;20466;-58
2021/12/27 07:48:51;;;;;;;21.25;9.25;;;;;;;-7.81;85.90;101164.34;5094437;28;20129;-58
2021/12/27 07:51:19;;;;;;;244.18;79.88;;;;;;;-7.87;86.25;101167.31;5096586;28;20044;-57
2021/12/27 07:53:46;;;;;;;406.95;129.65;;;;;;;-7.91;86.11;101172.88;5099667;28;20093;-55
2021/12/27 07:56:13;;;;;;;172.77;57.17;;;;;;;-7.95;86.56;101163.38;5092529;28;20095;-55
2021/12/27 07:58:43;;;;;;;66.28;27.10;;;;;;;-7.95;86.75;101165.88;5091374;28;20075;-61
2021/12/27 08:01:10;;;;;;;34.30;13.85;;;;;;;-7.94;87.04;101165.13;5090185;28;20049;-61
2021/12/27 08:03:37;;;;;;;24.85;10.50;;;;;;;-7.93;86.30;101171.91;5095392;28;20070;-48
2021/12/27 08:06:05;;;;;;;27.48;10.60;;;;;;;-7.91;86.94;101169.50;5095946;28;20136;-50
2021/12/27 08:08:33;;;;;;;28.70;11.48;;;;;;;-7.87;86.97;101172.34;5096100;28;20048;-54
